createdAt,value
2023-05-04T00:02:54.668Z,11.70
2023-05-04T00:05:22.808Z,11.70
2023-05-04T00:07:50.558Z,11.50
2023-05-04T00:13:07.034Z,11.60
2023-05-04T00:15:35.496Z,11.50
2023-05-04T00:18:03.469Z,11.50
2023-05-04T00:20:31.221Z,11.60
2023-05-04T00:22:59.584Z,11.50
2023-05-04T00:28:15.268Z,11.40
2023-05-04T00:30:43.302Z,11.40
2023-05-04T00:33:11.505Z,11.30
2023-05-04T00:35:40.727Z,11.10
2023-05-04T00:38:08.462Z,11.50
2023-05-04T00:40:36.214Z,11.40
2023-05-04T00:43:04.254Z,11.30
2023-05-04T00:45:32.677Z,11.30
2023-05-04T00:48:00.850Z,11.30
2023-05-04T00:50:29.323Z,11.30
2023-05-04T00:53:01.116Z,11.30
2023-05-04T00:55:29.585Z,11.30
2023-05-04T00:57:57.353Z,11.10
2023-05-04T01:00:25.128Z,11.20
2023-05-04T01:02:52.963Z,11.40
2023-05-04T01:05:21.054Z,11.10
2023-05-04T01:07:58.623Z,11.10
2023-05-04T01:10:34.244Z,11.10
2023-05-04T01:13:07.290Z,10.90
2023-05-04T01:15:36.360Z,10.90
2023-05-04T01:18:04.401Z,11.00
2023-05-04T01:20:32.919Z,10.90
2023-05-04T01:25:56.909Z,11.00
2023-05-04T01:28:34.858Z,10.90
2023-05-04T01:31:05.299Z,10.80
2023-05-04T01:33:33.623Z,10.90
2023-05-04T01:36:01.441Z,11.00
2023-05-04T01:38:30.320Z,10.80
2023-05-04T01:40:58.054Z,10.80
2023-05-04T01:43:26.006Z,10.80
2023-05-04T01:45:53.756Z,10.70
2023-05-04T01:48:21.511Z,10.70
2023-05-04T01:50:49.242Z,10.70
2023-05-04T01:56:05.577Z,10.60
2023-05-04T01:58:33.344Z,10.50
2023-05-04T02:01:01.138Z,10.70
2023-05-04T02:03:28.951Z,10.70
2023-05-04T02:05:56.891Z,10.60
2023-05-04T02:08:24.707Z,10.50
2023-05-04T02:10:52.492Z,10.40
2023-05-04T02:13:20.380Z,10.50
2023-05-04T02:15:48.087Z,10.50
2023-05-04T02:18:15.890Z,10.50
2023-05-04T02:20:43.814Z,10.40
2023-05-04T02:23:11.585Z,10.50
2023-05-04T02:25:41.016Z,10.30
2023-05-04T02:28:08.731Z,10.30
2023-05-04T02:30:36.731Z,10.40
2023-05-04T02:33:04.734Z,10.30
2023-05-04T02:35:32.544Z,10.10
2023-05-04T02:38:00.245Z,10.20
2023-05-04T02:40:28.111Z,10.40
2023-05-04T02:42:55.894Z,10.40
2023-05-04T02:45:23.786Z,10.30
2023-05-04T02:47:51.995Z,10.30
2023-05-04T02:50:20.026Z,10.30
2023-05-04T02:52:47.752Z,10.20
2023-05-04T02:55:15.987Z,10.20
2023-05-04T02:57:43.719Z,10.20
2023-05-04T03:00:13.535Z,10.20
2023-05-04T03:02:41.326Z,10.10
2023-05-04T03:05:09.814Z,10.20
2023-05-04T03:07:37.734Z,10.20
2023-05-04T03:10:08.633Z,10.30
2023-05-04T03:12:36.588Z,10.20
2023-05-04T03:15:06.167Z,10.10
2023-05-04T03:17:33.838Z,10.00
2023-05-04T03:20:01.937Z,10.10
2023-05-04T03:22:29.706Z,11.00
2023-05-04T03:27:43.345Z,10.10
2023-05-04T03:30:13.630Z,10.10
2023-05-04T03:32:41.458Z,10.10
2023-05-04T03:35:10.114Z,10.00
2023-05-04T03:37:37.799Z,10.00
2023-05-04T03:40:08.650Z,10.00
2023-05-04T03:42:37.475Z,9.90
2023-05-04T03:45:07.205Z,9.90
2023-05-04T03:47:34.987Z,10.00
2023-05-04T03:50:03.390Z,9.90
2023-05-04T03:52:31.388Z,9.80
2023-05-04T03:54:59.111Z,10.00
2023-05-04T03:57:26.753Z,9.90
2023-05-04T03:59:56.363Z,9.80
2023-05-04T04:02:25.804Z,9.90
2023-05-04T04:04:53.630Z,9.80
2023-05-04T04:07:21.792Z,9.70
2023-05-04T04:09:49.550Z,9.80
2023-05-04T04:12:18.954Z,9.80
2023-05-04T04:14:47.723Z,9.30
2023-05-04T04:17:15.585Z,9.60
2023-05-04T04:19:43.335Z,9.70
2023-05-04T04:22:11.360Z,9.70
2023-05-04T04:27:26.931Z,9.60
2023-05-04T04:29:54.633Z,9.60
2023-05-04T04:32:22.363Z,9.60
2023-05-04T04:34:50.182Z,9.60
2023-05-04T04:37:17.928Z,9.70
2023-05-04T04:39:46.104Z,9.70
2023-05-04T04:42:13.877Z,9.60
2023-05-04T04:44:41.604Z,9.50
2023-05-04T04:47:09.438Z,9.60
2023-05-04T04:49:37.542Z,9.50
2023-05-04T04:52:05.797Z,9.60
2023-05-04T04:54:33.509Z,9.60
2023-05-04T04:57:01.756Z,9.60
2023-05-04T04:59:29.980Z,9.70
2023-05-04T05:01:57.899Z,9.60
2023-05-04T05:04:25.674Z,9.60
2023-05-04T05:06:53.826Z,9.60
2023-05-04T05:09:21.633Z,9.60
2023-05-04T05:11:49.498Z,9.60
2023-05-04T05:14:17.552Z,9.70
2023-05-04T05:16:45.362Z,9.70
2023-05-04T05:19:13.178Z,9.70
2023-05-04T05:21:40.946Z,9.70
2023-05-04T05:24:08.923Z,9.80
2023-05-04T05:26:36.835Z,9.70
2023-05-04T05:29:04.554Z,9.70
2023-05-04T05:31:32.562Z,9.60
2023-05-04T05:34:00.668Z,9.80
2023-05-04T05:36:28.429Z,9.90
2023-05-04T05:38:56.254Z,9.80
2023-05-04T05:41:24.057Z,9.70
2023-05-04T05:43:51.843Z,9.70
2023-05-04T05:46:19.709Z,10.20
2023-05-04T05:48:47.541Z,9.80
2023-05-04T05:51:15.809Z,9.90
2023-05-04T05:53:44.188Z,9.90
2023-05-04T05:56:12.636Z,10.00
2023-05-04T06:01:27.440Z,10.10
2023-05-04T06:03:55.623Z,10.10
2023-05-04T06:06:23.810Z,10.10
2023-05-04T06:08:51.614Z,10.30
2023-05-04T06:11:19.540Z,10.40
2023-05-04T06:13:47.520Z,10.50
2023-05-04T06:16:15.259Z,10.50
2023-05-04T06:18:43.116Z,10.60
2023-05-04T06:21:10.990Z,10.80
2023-05-04T06:23:38.947Z,10.80
2023-05-04T06:26:07.422Z,10.90
2023-05-04T06:28:35.894Z,11.10
2023-05-04T06:31:03.710Z,11.10
2023-05-04T06:33:31.463Z,11.00
2023-05-04T06:35:59.620Z,11.10
2023-05-04T06:38:27.359Z,11.30
2023-05-04T06:40:55.124Z,11.30
2023-05-04T06:43:22.816Z,11.30
2023-05-04T06:45:50.563Z,11.40
2023-05-04T06:48:18.361Z,11.50
2023-05-04T06:50:46.624Z,11.60
2023-05-04T06:53:14.480Z,11.70
2023-05-04T06:55:42.160Z,11.60
2023-05-04T06:58:09.930Z,11.40
2023-05-04T07:00:37.595Z,11.80
2023-05-04T07:03:05.607Z,11.80
2023-05-04T07:05:36.078Z,11.60
2023-05-04T07:08:04.409Z,11.80
2023-05-04T07:10:32.922Z,11.90
2023-05-04T07:13:01.351Z,11.90
2023-05-04T07:15:29.354Z,11.90
2023-05-04T07:17:57.108Z,11.90
2023-05-04T07:20:26.190Z,11.70
2023-05-04T07:22:55.731Z,12.00
2023-05-04T07:25:24.182Z,12.10
2023-05-04T07:27:52.367Z,12.20
2023-05-04T07:30:21.006Z,12.30
2023-05-04T07:32:49.006Z,12.30
2023-05-04T07:35:16.897Z,12.30
2023-05-04T07:37:45.647Z,12.40
2023-05-04T07:40:14.311Z,12.40
2023-05-04T07:42:42.370Z,12.40
2023-05-04T07:47:56.227Z,12.50
2023-05-04T07:50:24.121Z,12.60
2023-05-04T07:52:52.079Z,12.60
2023-05-04T07:55:20.478Z,12.70
2023-05-04T07:57:48.178Z,12.70
2023-05-04T08:00:19.135Z,12.80
2023-05-04T08:02:46.906Z,12.80
2023-05-04T08:05:15.080Z,12.90
2023-05-04T08:07:43.148Z,12.90
2023-05-04T08:10:11.652Z,12.80
2023-05-04T08:12:40.831Z,13.00
2023-05-04T08:17:56.886Z,13.10
2023-05-04T08:20:24.686Z,13.20
2023-05-04T08:25:42.232Z,13.40
2023-05-04T08:28:10.290Z,13.40
2023-05-04T08:33:26.132Z,13.60
2023-05-04T08:35:54.048Z,13.60
2023-05-04T08:38:21.761Z,13.60
2023-05-04T08:40:50.651Z,13.60
2023-05-04T08:43:18.615Z,13.60
2023-05-04T08:45:46.637Z,13.70
2023-05-04T08:48:14.337Z,13.70
2023-05-04T08:50:42.219Z,13.80
2023-05-04T08:53:13.107Z,13.70
2023-05-04T08:55:43.794Z,13.70
2023-05-04T08:58:13.298Z,13.80
2023-05-04T09:00:42.795Z,13.90
2023-05-04T09:05:57.956Z,14.10
2023-05-04T09:08:26.666Z,14.10
2023-05-04T09:10:54.457Z,14.50
2023-05-04T09:13:22.192Z,14.20
2023-05-04T09:15:56.565Z,14.40
2023-05-04T09:18:36.101Z,14.40
2023-05-04T09:21:04.247Z,14.60
2023-05-04T09:23:32.568Z,14.70
2023-05-04T09:26:00.438Z,14.90
2023-05-04T09:31:28.297Z,15.20
2023-05-04T09:33:56.572Z,14.90
2023-05-04T09:36:24.538Z,15.00
2023-05-04T09:38:52.278Z,15.10
2023-05-04T09:41:30.822Z,15.60
2023-05-04T09:46:54.750Z,16.30
2023-05-04T09:49:31.952Z,16.50
2023-05-04T09:52:01.778Z,16.70
2023-05-04T09:54:34.022Z,16.80
2023-05-04T09:57:10.494Z,17.00
2023-05-04T09:59:38.801Z,17.10
2023-05-04T10:02:18.217Z,17.00
2023-05-04T10:04:51.180Z,17.20
2023-05-04T10:07:20.342Z,17.30
2023-05-04T10:09:49.971Z,17.40
2023-05-04T10:12:18.239Z,17.30
2023-05-04T10:14:46.379Z,17.20
2023-05-04T10:17:22.572Z,17.30
2023-05-04T10:20:05.424Z,17.40
2023-05-04T10:22:48.511Z,17.50
2023-05-04T10:28:43.794Z,17.70
2023-05-04T10:31:11.771Z,17.70
2023-05-04T10:33:40.489Z,17.80
2023-05-04T10:36:10.822Z,17.60
2023-05-04T10:38:40.536Z,17.80
2023-05-04T10:41:15.292Z,17.80
2023-05-04T10:43:48.229Z,17.40
2023-05-04T10:46:20.700Z,17.30
2023-05-04T10:48:49.237Z,17.20
2023-05-04T10:51:20.825Z,16.90
2023-05-04T10:53:49.251Z,17.00
2023-05-04T10:56:24.181Z,16.90
2023-05-04T10:58:52.817Z,17.00
2023-05-04T11:01:21.699Z,17.10
2023-05-04T11:03:51.148Z,17.10
2023-05-04T11:06:24.096Z,17.20
2023-05-04T11:09:01.453Z,17.10
2023-05-04T11:11:29.410Z,17.20
2023-05-04T11:13:58.312Z,17.20
2023-05-04T11:16:26.953Z,17.20
2023-05-04T11:19:06.895Z,17.20
2023-05-04T11:21:34.957Z,17.30
2023-05-04T11:24:02.880Z,17.30
2023-05-04T11:26:30.599Z,17.30
2023-05-04T11:28:58.558Z,17.40
2023-05-04T11:31:26.641Z,17.40
2023-05-04T11:33:55.493Z,17.50
2023-05-04T11:36:23.855Z,17.50
2023-05-04T11:38:55.806Z,17.60
2023-05-04T11:41:28.878Z,17.50
2023-05-04T11:43:58.094Z,17.70
2023-05-04T11:46:26.525Z,17.50
2023-05-04T11:48:54.411Z,17.70
2023-05-04T11:51:24.125Z,17.70
2023-05-04T11:53:53.511Z,17.90
2023-05-04T11:56:21.293Z,17.90
2023-05-04T11:58:49.355Z,17.90
2023-05-04T12:01:17.233Z,18.00
2023-05-04T12:03:53.810Z,18.10
2023-05-04T12:06:32.830Z,18.20
2023-05-04T12:09:05.425Z,18.20
2023-05-04T12:11:33.958Z,18.50
2023-05-04T12:14:06.602Z,18.60
2023-05-04T12:16:34.719Z,18.40
2023-05-04T12:19:04.296Z,18.40
2023-05-04T12:21:32.716Z,18.60
2023-05-04T12:24:02.546Z,18.70
2023-05-04T12:26:30.631Z,18.70
2023-05-04T12:28:58.432Z,18.90
2023-05-04T12:31:26.610Z,18.90
2023-05-04T12:33:54.493Z,19.00
2023-05-04T12:36:22.425Z,18.80
2023-05-04T12:38:50.178Z,19.00
2023-05-04T12:41:18.262Z,19.00
2023-05-04T12:43:46.251Z,19.00
2023-05-04T12:46:14.101Z,19.20
2023-05-04T12:48:41.899Z,19.30
2023-05-04T12:51:09.995Z,19.20
2023-05-04T12:53:37.775Z,19.20
2023-05-04T12:56:06.166Z,19.30
2023-05-04T12:58:34.066Z,19.50
2023-05-04T13:01:02.854Z,19.60
2023-05-04T13:03:30.817Z,19.60
2023-05-04T13:05:58.674Z,19.60
2023-05-04T13:08:26.492Z,19.60
2023-05-04T13:10:54.355Z,19.70
2023-05-04T13:13:25.634Z,19.70
2023-05-04T13:15:53.567Z,19.90
2023-05-04T13:18:26.234Z,19.90
2023-05-04T13:20:54.538Z,20.00
2023-05-04T13:23:22.908Z,19.80
2023-05-04T13:25:51.275Z,19.90
2023-05-04T13:28:19.481Z,20.10
2023-05-04T13:30:47.982Z,20.20
2023-05-04T13:33:27.840Z,20.30
2023-05-04T13:35:57.121Z,20.30
2023-05-04T13:38:25.380Z,20.40
2023-05-04T13:40:53.425Z,20.50
2023-05-04T13:43:21.934Z,20.60
2023-05-04T13:45:49.921Z,20.60
2023-05-04T13:48:17.827Z,20.70
2023-05-04T13:50:45.715Z,20.70
2023-05-04T13:53:13.684Z,20.80
2023-05-04T13:55:41.498Z,20.70
2023-05-04T13:58:09.207Z,20.80
2023-05-04T14:00:38.096Z,20.70
2023-05-04T14:03:06.124Z,20.60
2023-05-04T14:05:35.852Z,20.60
2023-05-04T14:08:03.758Z,20.50
2023-05-04T14:10:31.461Z,20.40
2023-05-04T14:12:59.264Z,20.40
2023-05-04T14:15:27.151Z,20.40
2023-05-04T14:17:54.925Z,20.40
2023-05-04T14:20:22.855Z,20.40
2023-05-04T14:22:50.861Z,20.50
2023-05-04T14:25:18.889Z,20.40
2023-05-04T14:27:46.837Z,20.50
2023-05-04T14:30:16.055Z,20.40
2023-05-04T14:32:43.836Z,20.30
2023-05-04T14:35:11.924Z,20.40
2023-05-04T14:37:40.095Z,20.40
2023-05-04T14:40:10.456Z,20.50
2023-05-04T14:42:38.967Z,20.40
2023-05-04T14:45:09.517Z,20.60
2023-05-04T14:47:37.564Z,20.50
2023-05-04T14:50:08.107Z,20.60
2023-05-04T14:52:36.151Z,20.60
2023-05-04T14:57:54.114Z,20.60
2023-05-04T15:00:22.645Z,20.60
2023-05-04T15:02:50.525Z,20.40
2023-05-04T15:05:19.887Z,20.50
2023-05-04T15:07:47.940Z,20.50
2023-05-04T15:10:16.308Z,20.50
2023-05-04T15:12:44.181Z,20.40
2023-05-04T15:17:59.806Z,20.50
2023-05-04T15:20:28.128Z,20.60
2023-05-04T15:22:56.104Z,20.60
2023-05-04T15:25:24.323Z,20.80
2023-05-04T15:27:52.217Z,20.80
2023-05-04T15:32:49.232Z,20.80
2023-05-04T15:35:18.021Z,21.10
2023-05-04T15:37:45.890Z,21.00
2023-05-04T15:40:14.694Z,21.10
2023-05-04T15:42:42.701Z,21.30
2023-05-04T15:45:13.540Z,21.00
2023-05-04T15:47:41.458Z,21.50
2023-05-04T15:50:10.227Z,21.40
2023-05-04T15:52:38.970Z,21.50
2023-05-04T15:55:23.538Z,21.50
2023-05-04T15:57:53.152Z,21.50
2023-05-04T16:00:22.864Z,21.70
2023-05-04T16:02:51.148Z,21.70
2023-05-04T16:05:19.693Z,21.80
2023-05-04T16:07:47.598Z,21.90
2023-05-04T16:13:04.669Z,21.90
2023-05-04T16:15:32.792Z,21.80
2023-05-04T16:18:00.863Z,21.80
2023-05-04T16:20:29.325Z,21.70
2023-05-04T16:22:57.292Z,21.70
2023-05-04T16:25:25.279Z,21.60
2023-05-04T16:27:53.281Z,21.90
2023-05-04T16:30:21.764Z,22.20
2023-05-04T16:32:49.906Z,22.00
2023-05-04T16:35:18.225Z,21.80
2023-05-04T16:37:46.060Z,22.00
2023-05-04T16:40:15.911Z,21.30
2023-05-04T16:42:44.467Z,21.50
2023-05-04T16:45:13.688Z,21.40
2023-05-04T16:47:42.050Z,21.40
2023-05-04T16:50:11.174Z,21.40
2023-05-04T16:52:39.596Z,21.30
2023-05-04T16:57:57.827Z,21.10
2023-05-04T17:00:26.526Z,21.60
2023-05-04T17:02:54.479Z,21.00
2023-05-04T17:05:22.291Z,21.00
2023-05-04T17:07:50.268Z,21.00
2023-05-04T17:10:18.421Z,20.90
2023-05-04T17:12:46.392Z,20.80
2023-05-04T17:18:02.356Z,20.70
2023-05-04T17:20:31.344Z,20.80
2023-05-04T17:22:59.394Z,20.90
2023-05-04T17:25:27.854Z,21.00
2023-05-04T17:27:55.885Z,20.80
2023-05-04T17:30:25.350Z,20.80
2023-05-04T17:32:55.039Z,20.50
2023-05-04T17:35:26.336Z,20.70
2023-05-04T17:37:57.911Z,20.80
2023-05-04T17:40:26.874Z,20.90
2023-05-04T17:42:54.759Z,20.80
2023-05-04T17:45:22.983Z,20.80
2023-05-04T17:47:52.225Z,20.80
2023-05-04T17:50:21.004Z,20.60
2023-05-04T17:52:52.658Z,20.80
2023-05-04T17:55:22.977Z,20.50
2023-05-04T17:57:53.898Z,20.50
2023-05-04T18:00:22.965Z,20.20
2023-05-04T18:02:51.559Z,20.30
2023-05-04T18:05:20.399Z,20.30
2023-05-04T18:07:48.389Z,20.40
2023-05-04T18:10:16.616Z,20.30
2023-05-04T18:12:44.576Z,20.10
2023-05-04T18:15:12.879Z,20.20
2023-05-04T18:17:40.822Z,20.10
2023-05-04T18:20:12.570Z,20.10
2023-05-04T18:22:40.750Z,20.00
2023-05-04T18:25:10.205Z,19.90
2023-05-04T18:27:38.037Z,19.30
2023-05-04T18:30:08.727Z,19.90
2023-05-04T18:35:23.267Z,19.90
2023-05-04T18:37:51.544Z,19.90
2023-05-04T18:43:05.569Z,19.80
2023-05-04T18:45:34.808Z,19.70
2023-05-04T18:48:03.307Z,20.00
2023-05-04T18:50:31.288Z,19.70
2023-05-04T18:55:46.700Z,19.50
2023-05-04T18:58:14.529Z,19.50
2023-05-04T19:00:45.657Z,19.30
2023-05-04T19:03:13.523Z,19.30
2023-05-04T19:05:42.895Z,19.20
2023-05-04T19:08:11.111Z,19.30
2023-05-04T19:10:38.946Z,19.50
2023-05-04T19:13:07.142Z,19.20
2023-05-04T19:15:35.151Z,19.10
2023-05-04T19:18:03.620Z,19.20
2023-05-04T19:20:32.006Z,19.10
2023-05-04T19:22:59.882Z,19.10
2023-05-04T19:28:15.453Z,19.00
2023-05-04T19:30:43.554Z,19.00
2023-05-04T19:33:11.858Z,19.10
2023-05-04T19:35:40.212Z,19.10
2023-05-04T19:40:55.150Z,18.80
2023-05-04T19:46:08.971Z,18.80
2023-05-04T19:48:38.083Z,18.90
2023-05-04T19:51:06.980Z,18.80
2023-05-04T19:53:35.724Z,18.80
2023-05-04T19:58:52.691Z,18.70
2023-05-04T20:01:21.364Z,18.70
2023-05-04T20:06:36.992Z,18.70
2023-05-04T20:11:33.058Z,18.50
2023-05-04T20:14:01.099Z,20.40
2023-05-04T20:16:29.190Z,18.50
2023-05-04T20:18:57.098Z,18.50
2023-05-04T20:21:25.152Z,18.40
2023-05-04T20:23:53.414Z,18.50
2023-05-04T20:26:22.790Z,18.50
2023-05-04T20:28:50.800Z,18.50
2023-05-04T20:34:13.794Z,18.70
2023-05-04T20:36:41.822Z,18.60
2023-05-04T20:39:09.759Z,18.90
2023-05-04T20:41:37.940Z,18.80
2023-05-04T20:44:06.166Z,18.50
2023-05-04T20:46:34.546Z,18.80
2023-05-04T20:49:02.739Z,18.70
2023-05-04T20:51:31.924Z,18.70
2023-05-04T20:54:00.009Z,18.70
2023-05-04T20:56:28.216Z,18.60
2023-05-04T21:01:43.842Z,18.30
2023-05-04T21:04:14.539Z,18.30
2023-05-04T21:06:42.498Z,18.30
2023-05-04T21:09:10.908Z,18.20
2023-05-04T21:11:38.857Z,18.10
2023-05-04T21:14:07.017Z,18.10
2023-05-04T21:16:36.000Z,18.00
2023-05-04T21:19:04.086Z,18.00
2023-05-04T21:21:34.036Z,17.90
2023-05-04T21:24:02.304Z,18.00
2023-05-04T21:26:30.648Z,17.80
2023-05-04T21:28:58.629Z,17.70
2023-05-04T21:31:26.561Z,17.60
2023-05-04T21:33:54.778Z,17.70
2023-05-04T21:36:22.743Z,17.70
2023-05-04T21:38:50.568Z,17.70
2023-05-04T21:41:21.908Z,17.40
2023-05-04T21:43:50.797Z,17.50
2023-05-04T21:46:19.874Z,17.60
2023-05-04T21:48:47.722Z,17.80
2023-05-04T21:51:15.613Z,17.70
2023-05-04T21:53:44.653Z,17.70
2023-05-04T21:56:12.528Z,17.50
2023-05-04T21:58:41.287Z,17.60
2023-05-04T22:01:09.838Z,17.60
2023-05-04T22:03:37.847Z,17.60
2023-05-04T22:06:06.794Z,17.10
2023-05-04T22:08:34.709Z,17.50
2023-05-04T22:11:03.005Z,17.40
2023-05-04T22:13:30.871Z,17.30
2023-05-04T22:15:58.663Z,17.30
2023-05-04T22:18:26.575Z,17.30
2023-05-04T22:20:54.530Z,17.40
2023-05-04T22:23:22.311Z,17.30
2023-05-04T22:25:50.422Z,17.30
2023-05-04T22:28:18.251Z,17.30
2023-05-04T22:30:46.176Z,17.30
2023-05-04T22:35:58.947Z,17.10
2023-05-04T22:38:26.886Z,17.10
2023-05-04T22:43:42.219Z,17.10
2023-05-04T22:46:15.881Z,17.00
2023-05-04T22:48:46.005Z,17.00
2023-05-04T22:51:14.164Z,17.00
2023-05-04T22:53:42.109Z,17.00
2023-05-04T22:56:10.042Z,17.10
2023-05-04T22:58:37.751Z,16.90
2023-05-04T23:01:10.199Z,16.90
2023-05-04T23:03:38.410Z,16.90
2023-05-04T23:06:07.990Z,16.80
2023-05-04T23:08:35.803Z,16.90
2023-05-04T23:13:31.516Z,16.80
2023-05-04T23:15:59.407Z,16.90
2023-05-04T23:18:27.207Z,16.90
2023-05-04T23:20:55.253Z,16.80
2023-05-04T23:23:23.097Z,16.80
2023-05-04T23:25:50.983Z,16.80
2023-05-04T23:28:18.801Z,16.90
2023-05-04T23:30:46.617Z,16.80
2023-05-04T23:33:14.831Z,16.60
2023-05-04T23:35:43.006Z,16.80
2023-05-04T23:38:10.973Z,16.90
2023-05-04T23:40:38.957Z,16.70
2023-05-04T23:43:06.748Z,16.70
2023-05-04T23:45:34.530Z,16.80
2023-05-04T23:48:02.447Z,16.80
2023-05-04T23:50:30.318Z,16.80
2023-05-04T23:52:58.134Z,16.80
2023-05-04T23:55:26.394Z,15.40
2023-05-04T23:57:54.191Z,16.70
